Terminal Aerodrome Forecast
Issued by NWS

Home | Current Version | Previous Version | Text Only | Print | Product List | Glossary On
Versions: 1 2 3 4 5 6 7 8 9 10 11 12 13 14 15 16 17 18 19 20 21 22 23 24
590
FTUS44 KBMX 232329
TAFEET
TAF
KEET 232329Z 2400/2424 15003KT P6SM SKC
     FM241000 15003KT P6SM BKN015
     FM241500 18007KT P6SM BKN025
     FM241800 19010KT P6SM SCT035=

USA.gov is the U.S. government's official web portal to all federal, state and local government web resources and services.